sensor_id;sensor_type;location;lat;lon;timestamp;pressure;altitude;pressure_sealevel;temperature;humidity
53522;BME280;39398;48.382;9.802;2023-04-08T00:04:15;93912.63;;;5.37;100.00
53522;BME280;39398;48.382;9.802;2023-04-08T00:09:17;93921.94;;;5.31;100.00
53522;BME280;39398;48.382;9.802;2023-04-08T00:14:19;93926.16;;;5.32;100.00
53522;BME280;39398;48.382;9.802;2023-04-08T00:19:21;93933.66;;;5.19;100.00
53522;BME280;39398;48.382;9.802;2023-04-08T00:24:22;93927.34;;;5.38;100.00
53522;BME280;39398;48.382;9.802;2023-04-08T00:29:25;93922.03;;;5.13;100.00
53522;BME280;39398;48.382;9.802;2023-04-08T00:34:27;93930.09;;;5.20;100.00
53522;BME280;39398;48.382;9.802;2023-04-08T00:39:28;93916.97;;;5.12;100.00
53522;BME280;39398;48.382;9.802;2023-04-08T00:44:31;93923.06;;;5.29;100.00
53522;BME280;39398;48.382;9.802;2023-04-08T00:49:33;93921.66;;;5.00;100.00
53522;BME280;39398;48.382;9.802;2023-04-08T00:54:35;93941.63;;;4.75;100.00
53522;BME280;39398;48.382;9.802;2023-04-08T00:59:38;93943.16;;;5.20;100.00
53522;BME280;39398;48.382;9.802;2023-04-08T01:04:46;93937.13;;;4.85;100.00
53522;BME280;39398;48.382;9.802;2023-04-08T01:09:52;93944.94;;;4.77;100.00
53522;BME280;39398;48.382;9.802;2023-04-08T01:14:59;93946.50;;;4.96;100.00
53522;BME280;39398;48.382;9.802;2023-04-08T01:20:02;93943.19;;;4.86;100.00
53522;BME280;39398;48.382;9.802;2023-04-08T01:25:07;93953.97;;;5.25;100.00
53522;BME280;39398;48.382;9.802;2023-04-08T01:30:14;93950.84;;;5.22;100.00
53522;BME280;39398;48.382;9.802;2023-04-08T01:35:17;93939.94;;;5.34;100.00
53522;BME280;39398;48.382;9.802;2023-04-08T01:40:19;93949.00;;;5.06;100.00
53522;BME280;39398;48.382;9.802;2023-04-08T01:45:23;93942.66;;;5.17;100.00
53522;BME280;39398;48.382;9.802;2023-04-08T01:50:25;93942.69;;;4.90;100.00
53522;BME280;39398;48.382;9.802;2023-04-08T01:55:27;93946.31;;;4.98;100.00
53522;BME280;39398;48.382;9.802;2023-04-08T02:00:31;93939.91;;;4.84;100.00
53522;BME280;39398;48.382;9.802;2023-04-08T02:05:34;93949.59;;;4.92;100.00
53522;BME280;39398;48.382;9.802;2023-04-08T02:10:35;93942.28;;;5.03;100.00
53522;BME280;39398;48.382;9.802;2023-04-08T02:15:42;93943.94;;;5.04;100.00
53522;BME280;39398;48.382;9.802;2023-04-08T02:20:49;93950.41;;;5.34;100.00
53522;BME280;39398;48.382;9.802;2023-04-08T02:25:55;93947.72;;;5.18;100.00
53522;BME280;39398;48.382;9.802;2023-04-08T02:30:59;93946.81;;;4.93;100.00
53522;BME280;39398;48.382;9.802;2023-04-08T02:36:01;93952.97;;;5.18;100.00
53522;BME280;39398;48.382;9.802;2023-04-08T02:41:04;93951.06;;;4.94;100.00
53522;BME280;39398;48.382;9.802;2023-04-08T02:46:08;93956.47;;;5.01;100.00
53522;BME280;39398;48.382;9.802;2023-04-08T02:51:11;93950.66;;;5.15;100.00
53522;BME280;39398;48.382;9.802;2023-04-08T02:56:12;93943.69;;;4.89;100.00
53522;BME280;39398;48.382;9.802;2023-04-08T03:01:15;93946.88;;;4.75;100.00
53522;BME280;39398;48.382;9.802;2023-04-08T03:06:17;93953.34;;;4.97;100.00
53522;BME280;39398;48.382;9.802;2023-04-08T03:11:18;93955.03;;;4.72;100.00
53522;BME280;39398;48.382;9.802;2023-04-08T03:16:21;93957.22;;;4.85;100.00
53522;BME280;39398;48.382;9.802;2023-04-08T03:21:23;93955.47;;;4.94;100.00
53522;BME280;39398;48.382;9.802;2023-04-08T03:26:24;93950.59;;;4.99;100.00
53522;BME280;39398;48.382;9.802;2023-04-08T03:31:27;93952.09;;;4.75;100.00
53522;BME280;39398;48.382;9.802;2023-04-08T03:36:29;93954.97;;;4.90;100.00
53522;BME280;39398;48.382;9.802;2023-04-08T03:41:31;93952.59;;;5.05;100.00
53522;BME280;39398;48.382;9.802;2023-04-08T03:46:34;93949.44;;;4.93;100.00
53522;BME280;39398;48.382;9.802;2023-04-08T03:51:35;93951.91;;;5.03;100.00
53522;BME280;39398;48.382;9.802;2023-04-08T03:56:37;93946.63;;;4.86;100.00
53522;BME280;39398;48.382;9.802;2023-04-08T04:01:40;93955.44;;;4.85;100.00
53522;BME280;39398;48.382;9.802;2023-04-08T04:06:42;93947.56;;;5.20;100.00
53522;BME280;39398;48.382;9.802;2023-04-08T04:11:44;93950.75;;;4.97;100.00
53522;BME280;39398;48.382;9.802;2023-04-08T04:16:47;93953.47;;;4.87;100.00
53522;BME280;39398;48.382;9.802;2023-04-08T04:21:49;93954.34;;;4.96;100.00
53522;BME280;39398;48.382;9.802;2023-04-08T04:26:50;93948.94;;;4.98;100.00
53522;BME280;39398;48.382;9.802;2023-04-08T04:31:53;93964.34;;;4.66;100.00
53522;BME280;39398;48.382;9.802;2023-04-08T04:36:55;93966.78;;;4.68;100.00
53522;BME280;39398;48.382;9.802;2023-04-08T04:41:56;93966.75;;;4.94;100.00
53522;BME280;39398;48.382;9.802;2023-04-08T04:46:59;93974.38;;;4.79;100.00
53522;BME280;39398;48.382;9.802;2023-04-08T04:52:01;93970.78;;;4.54;100.00
53522;BME280;39398;48.382;9.802;2023-04-08T04:57:02;93975.19;;;4.54;100.00
53522;BME280;39398;48.382;9.802;2023-04-08T05:02:05;93977.53;;;4.65;100.00
53522;BME280;39398;48.382;9.802;2023-04-08T05:07:07;93982.03;;;4.73;100.00
53522;BME280;39398;48.382;9.802;2023-04-08T05:12:08;93982.66;;;4.75;100.00
53522;BME280;39398;48.382;9.802;2023-04-08T05:17:11;93983.47;;;4.75;100.00
53522;BME280;39398;48.382;9.802;2023-04-08T05:22:13;93981.72;;;4.76;100.00
53522;BME280;39398;48.382;9.802;2023-04-08T05:27:15;93986.97;;;4.84;100.00
53522;BME280;39398;48.382;9.802;2023-04-08T05:32:17;93985.53;;;4.89;100.00
53522;BME280;39398;48.382;9.802;2023-04-08T05:37:19;93991.09;;;4.86;100.00
53522;BME280;39398;48.382;9.802;2023-04-08T05:42:21;93990.41;;;4.84;100.00
53522;BME280;39398;48.382;9.802;2023-04-08T05:47:24;93989.78;;;4.90;100.00
53522;BME280;39398;48.382;9.802;2023-04-08T05:52:25;93992.22;;;4.84;100.00
53522;BME280;39398;48.382;9.802;2023-04-08T05:57:27;93993.28;;;4.99;100.00
53522;BME280;39398;48.382;9.802;2023-04-08T06:02:30;93999.31;;;5.00;100.00
53522;BME280;39398;48.382;9.802;2023-04-08T06:07:32;94009.03;;;4.81;100.00
53522;BME280;39398;48.382;9.802;2023-04-08T06:12:34;94003.53;;;4.93;100.00
53522;BME280;39398;48.382;9.802;2023-04-08T06:17:38;94013.09;;;5.10;100.00
53522;BME280;39398;48.382;9.802;2023-04-08T06:22:40;94018.09;;;5.21;100.00
53522;BME280;39398;48.382;9.802;2023-04-08T06:27:41;94017.38;;;5.11;100.00
53522;BME280;39398;48.382;9.802;2023-04-08T06:32:44;94022.66;;;5.19;100.00
53522;BME280;39398;48.382;9.802;2023-04-08T06:37:46;94021.03;;;5.26;100.00
53522;BME280;39398;48.382;9.802;2023-04-08T06:42:47;94020.97;;;5.10;100.00
53522;BME280;39398;48.382;9.802;2023-04-08T06:47:50;94029.13;;;5.07;100.00
53522;BME280;39398;48.382;9.802;2023-04-08T06:52:52;94030.94;;;5.41;100.00
53522;BME280;39398;48.382;9.802;2023-04-08T06:57:53;94035.56;;;5.55;100.00
53522;BME280;39398;48.382;9.802;2023-04-08T07:02:56;94037.16;;;5.48;100.00
53522;BME280;39398;48.382;9.802;2023-04-08T07:07:58;94047.50;;;5.15;100.00
53522;BME280;39398;48.382;9.802;2023-04-08T07:12:59;94048.59;;;5.04;100.00
53522;BME280;39398;48.382;9.802;2023-04-08T07:18:02;94042.56;;;5.12;100.00
53522;BME280;39398;48.382;9.802;2023-04-08T07:23:04;94047.44;;;5.33;100.00
53522;BME280;39398;48.382;9.802;2023-04-08T07:28:05;94062.00;;;5.09;100.00
53522;BME280;39398;48.382;9.802;2023-04-08T07:33:08;94068.03;;;5.02;100.00
53522;BME280;39398;48.382;9.802;2023-04-08T07:38:10;94070.25;;;5.23;100.00
53522;BME280;39398;48.382;9.802;2023-04-08T07:43:12;94077.63;;;4.93;100.00
53522;BME280;39398;48.382;9.802;2023-04-08T07:48:15;94076.91;;;4.65;100.00
53522;BME280;39398;48.382;9.802;2023-04-08T07:53:17;94088.44;;;4.98;100.00
53522;BME280;39398;48.382;9.802;2023-04-08T07:58:19;94088.91;;;4.94;100.00
53522;BME280;39398;48.382;9.802;2023-04-08T08:03:22;94088.75;;;4.95;100.00
53522;BME280;39398;48.382;9.802;2023-04-08T08:08:24;94097.16;;;5.33;100.00
53522;BME280;39398;48.382;9.802;2023-04-08T08:13:25;94105.03;;;5.33;100.00
53522;BME280;39398;48.382;9.802;2023-04-08T08:18:28;94101.25;;;5.09;100.00
53522;BME280;39398;48.382;9.802;2023-04-08T08:23:30;94103.97;;;5.26;100.00
53522;BME280;39398;48.382;9.802;2023-04-08T08:28:31;94096.34;;;5.67;100.00
53522;BME280;39398;48.382;9.802;2023-04-08T08:33:34;94092.81;;;5.92;100.00
53522;BME280;39398;48.382;9.802;2023-04-08T08:38:36;94094.22;;;6.04;100.00
53522;BME280;39398;48.382;9.802;2023-04-08T08:43:37;94097.94;;;6.61;100.00
53522;BME280;39398;48.382;9.802;2023-04-08T08:48:40;94088.41;;;6.60;100.00
53522;BME280;39398;48.382;9.802;2023-04-08T08:53:42;94085.78;;;6.51;100.00
53522;BME280;39398;48.382;9.802;2023-04-08T08:58:43;94101.59;;;6.09;100.00
53522;BME280;39398;48.382;9.802;2023-04-08T09:04:05;94105.22;;;6.24;100.00
53522;BME280;39398;48.382;9.802;2023-04-08T09:09:07;94103.66;;;6.56;100.00
53522;BME280;39398;48.382;9.802;2023-04-08T09:14:19;94106.28;;;6.89;100.00
53522;BME280;39398;48.382;9.802;2023-04-08T09:19:22;94106.69;;;7.50;100.00
53522;BME280;39398;48.382;9.802;2023-04-08T09:24:27;94099.22;;;7.06;100.00
53522;BME280;39398;48.382;9.802;2023-04-08T09:29:29;94098.22;;;7.23;100.00
53522;BME280;39398;48.382;9.802;2023-04-08T09:34:36;94109.91;;;6.96;100.00
53522;BME280;39398;48.382;9.802;2023-04-08T09:39:38;94111.59;;;7.53;100.00
53522;BME280;39398;48.382;9.802;2023-04-08T09:44:40;94103.47;;;7.23;100.00
53522;BME280;39398;48.382;9.802;2023-04-08T09:49:50;94116.72;;;7.93;100.00
53522;BME280;39398;48.382;9.802;2023-04-08T09:55:00;94107.19;;;7.53;100.00
53522;BME280;39398;48.382;9.802;2023-04-08T10:00:06;94112.25;;;7.55;100.00
53522;BME280;39398;48.382;9.802;2023-04-08T10:05:12;94117.25;;;7.89;100.00
53522;BME280;39398;48.382;9.802;2023-04-08T10:10:14;94112.56;;;7.68;100.00
53522;BME280;39398;48.382;9.802;2023-04-08T10:15:24;94111.00;;;7.34;100.00
53522;BME280;39398;48.382;9.802;2023-04-08T10:20:47;94108.06;;;7.21;100.00
53522;BME280;39398;48.382;9.802;2023-04-08T10:25:49;94107.09;;;7.14;100.00
53522;BME280;39398;48.382;9.802;2023-04-08T10:30:51;94106.94;;;6.74;100.00
53522;BME280;39398;48.382;9.802;2023-04-08T10:35:58;94105.16;;;6.83;100.00
53522;BME280;39398;48.382;9.802;2023-04-08T10:41:00;94092.03;;;6.83;100.00
53522;BME280;39398;48.382;9.802;2023-04-08T10:46:02;94102.00;;;7.04;100.00
53522;BME280;39398;48.382;9.802;2023-04-08T10:51:05;94107.59;;;7.01;100.00
53522;BME280;39398;48.382;9.802;2023-04-08T10:56:07;94109.06;;;7.12;100.00
53522;BME280;39398;48.382;9.802;2023-04-08T11:01:09;94104.31;;;6.91;100.00
53522;BME280;39398;48.382;9.802;2023-04-08T11:06:12;94105.63;;;6.95;100.00
53522;BME280;39398;48.382;9.802;2023-04-08T11:11:14;94108.56;;;7.16;100.00
53522;BME280;39398;48.382;9.802;2023-04-08T11:16:16;94095.63;;;6.74;100.00
53522;BME280;39398;48.382;9.802;2023-04-08T11:21:22;94099.06;;;6.66;100.00
53522;BME280;39398;48.382;9.802;2023-04-08T11:26:24;94104.97;;;6.85;100.00
53522;BME280;39398;48.382;9.802;2023-04-08T11:31:27;94101.03;;;6.97;97.84
53522;BME280;39398;48.382;9.802;2023-04-08T11:36:30;94102.44;;;7.49;99.60
53522;BME280;39398;48.382;9.802;2023-04-08T11:41:35;94107.38;;;7.27;98.25
53522;BME280;39398;48.382;9.802;2023-04-08T11:46:37;94104.06;;;7.50;91.78
53522;BME280;39398;48.382;9.802;2023-04-08T11:51:55;94102.16;;;7.11;100.00
53522;BME280;39398;48.382;9.802;2023-04-08T11:56:58;94097.25;;;6.91;100.00
53522;BME280;39398;48.382;9.802;2023-04-08T12:02:00;94103.28;;;7.41;94.52
53522;BME280;39398;48.382;9.802;2023-04-08T12:07:03;94101.28;;;7.51;98.43
53522;BME280;39398;48.382;9.802;2023-04-08T12:12:05;94106.50;;;7.59;96.23
53522;BME280;39398;48.382;9.802;2023-04-08T12:17:06;94108.09;;;7.68;96.37
53522;BME280;39398;48.382;9.802;2023-04-08T12:22:09;94112.19;;;7.79;93.79
53522;BME280;39398;48.382;9.802;2023-04-08T12:27:11;94107.41;;;7.83;98.32
53522;BME280;39398;48.382;9.802;2023-04-08T12:32:12;94109.22;;;7.82;97.13
53522;BME280;39398;48.382;9.802;2023-04-08T12:37:15;94109.19;;;7.27;100.00
53522;BME280;39398;48.382;9.802;2023-04-08T12:42:16;94112.16;;;7.32;100.00
53522;BME280;39398;48.382;9.802;2023-04-08T12:47:18;94111.34;;;7.31;100.00
53522;BME280;39398;48.382;9.802;2023-04-08T12:52:21;94099.88;;;6.59;100.00
53522;BME280;39398;48.382;9.802;2023-04-08T12:57:22;94106.91;;;7.32;100.00
53522;BME280;39398;48.382;9.802;2023-04-08T13:02:24;94113.16;;;7.14;100.00
53522;BME280;39398;48.382;9.802;2023-04-08T13:07:27;94104.59;;;7.20;100.00
53522;BME280;39398;48.382;9.802;2023-04-08T13:12:29;94106.75;;;6.76;100.00
53522;BME280;39398;48.382;9.802;2023-04-08T13:17:31;94098.66;;;6.12;100.00
53522;BME280;39398;48.382;9.802;2023-04-08T13:22:34;94095.91;;;6.30;100.00
53522;BME280;39398;48.382;9.802;2023-04-08T13:27:35;94101.31;;;6.37;99.14
53522;BME280;39398;48.382;9.802;2023-04-08T13:32:37;94100.69;;;5.92;98.75
53522;BME280;39398;48.382;9.802;2023-04-08T13:37:40;94118.22;;;5.92;99.64
53522;BME280;39398;48.382;9.802;2023-04-08T13:42:41;94115.94;;;6.56;97.21
53522;BME280;39398;48.382;9.802;2023-04-08T13:47:43;94115.28;;;6.62;96.92
53522;BME280;39398;48.382;9.802;2023-04-08T13:52:46;94116.94;;;7.04;94.54
53522;BME280;39398;48.382;9.802;2023-04-08T13:57:47;94107.56;;;6.44;95.12
53522;BME280;39398;48.382;9.802;2023-04-08T14:02:49;94112.31;;;6.40;92.63
53522;BME280;39398;48.382;9.802;2023-04-08T14:07:52;94111.38;;;5.99;99.77
53522;BME280;39398;48.382;9.802;2023-04-08T14:12:53;94112.50;;;6.39;91.78
53522;BME280;39398;48.382;9.802;2023-04-08T14:17:55;94110.47;;;6.16;97.76
53522;BME280;39398;48.382;9.802;2023-04-08T14:22:58;94113.56;;;6.12;98.58
53522;BME280;39398;48.382;9.802;2023-04-08T14:27:59;94109.69;;;6.32;96.94
53522;BME280;39398;48.382;9.802;2023-04-08T14:33:01;94119.16;;;6.17;100.00
53522;BME280;39398;48.382;9.802;2023-04-08T14:38:04;94118.75;;;6.54;92.97
53522;BME280;39398;48.382;9.802;2023-04-08T14:43:06;94110.19;;;6.44;91.96
53522;BME280;39398;48.382;9.802;2023-04-08T14:48:07;94111.19;;;6.51;95.64
53522;BME280;39398;48.382;9.802;2023-04-08T14:53:10;94115.84;;;6.07;100.00
53522;BME280;39398;48.382;9.802;2023-04-08T14:58:12;94127.06;;;5.91;100.00
53522;BME280;39398;48.382;9.802;2023-04-08T15:03:14;94129.19;;;6.29;98.29
53522;BME280;39398;48.382;9.802;2023-04-08T15:08:17;94131.91;;;5.77;100.00
53522;BME280;39398;48.382;9.802;2023-04-08T15:13:18;94141.81;;;5.92;100.00
53522;BME280;39398;48.382;9.802;2023-04-08T15:18:20;94162.72;;;5.83;100.00
53522;BME280;39398;48.382;9.802;2023-04-08T15:23:23;94156.97;;;5.80;100.00
53522;BME280;39398;48.382;9.802;2023-04-08T15:28:24;94161.50;;;5.70;100.00
53522;BME280;39398;48.382;9.802;2023-04-08T15:33:26;94160.16;;;5.13;100.00
53522;BME280;39398;48.382;9.802;2023-04-08T15:38:29;94170.91;;;4.84;100.00
53522;BME280;39398;48.382;9.802;2023-04-08T15:43:30;94189.72;;;4.88;100.00
53522;BME280;39398;48.382;9.802;2023-04-08T15:48:32;94189.63;;;5.16;100.00
53522;BME280;39398;48.382;9.802;2023-04-08T15:53:36;94192.47;;;5.22;100.00
53522;BME280;39398;48.382;9.802;2023-04-08T15:58:37;94193.78;;;5.26;100.00
53522;BME280;39398;48.382;9.802;2023-04-08T16:03:39;94199.06;;;5.08;100.00
53522;BME280;39398;48.382;9.802;2023-04-08T16:08:42;94203.19;;;5.11;100.00
53522;BME280;39398;48.382;9.802;2023-04-08T16:13:43;94210.34;;;5.09;100.00
53522;BME280;39398;48.382;9.802;2023-04-08T16:18:45;94210.56;;;5.16;100.00
53522;BME280;39398;48.382;9.802;2023-04-08T16:23:49;94210.88;;;5.12;100.00
53522;BME280;39398;48.382;9.802;2023-04-08T16:28:51;94223.13;;;5.12;100.00
53522;BME280;39398;48.382;9.802;2023-04-08T16:33:53;94228.31;;;5.48;100.00
53522;BME280;39398;48.382;9.802;2023-04-08T16:38:56;94234.13;;;5.33;100.00
53522;BME280;39398;48.382;9.802;2023-04-08T16:43:58;94228.59;;;5.01;100.00
53522;BME280;39398;48.382;9.802;2023-04-08T16:48:59;94239.22;;;4.99;100.00
53522;BME280;39398;48.382;9.802;2023-04-08T16:54:03;94235.25;;;5.13;100.00
53522;BME280;39398;48.382;9.802;2023-04-08T16:59:04;94231.13;;;5.10;100.00
53522;BME280;39398;48.382;9.802;2023-04-08T17:04:06;94234.47;;;5.39;100.00
53522;BME280;39398;48.382;9.802;2023-04-08T17:09:09;94234.38;;;5.48;100.00
53522;BME280;39398;48.382;9.802;2023-04-08T17:14:11;94235.06;;;5.50;100.00
53522;BME280;39398;48.382;9.802;2023-04-08T17:19:12;94245.13;;;5.63;100.00
53522;BME280;39398;48.382;9.802;2023-04-08T17:24:16;94244.72;;;5.32;100.00
53522;BME280;39398;48.382;9.802;2023-04-08T17:29:17;94252.06;;;5.72;100.00
53522;BME280;39398;48.382;9.802;2023-04-08T17:34:19;94255.03;;;5.77;100.00
53522;BME280;39398;48.382;9.802;2023-04-08T17:39:22;94264.13;;;5.91;100.00
53522;BME280;39398;48.382;9.802;2023-04-08T17:44:24;94265.06;;;5.82;100.00
53522;BME280;39398;48.382;9.802;2023-04-08T17:49:25;94272.41;;;5.52;100.00
53522;BME280;39398;48.382;9.802;2023-04-08T17:54:28;94283.03;;;5.33;100.00
53522;BME280;39398;48.382;9.802;2023-04-08T17:59:30;94281.66;;;5.91;100.00
53522;BME280;39398;48.382;9.802;2023-04-08T18:04:31;94279.09;;;5.99;100.00
53522;BME280;39398;48.382;9.802;2023-04-08T18:09:34;94287.53;;;5.67;100.00
53522;BME280;39398;48.382;9.802;2023-04-08T18:14:36;94290.75;;;5.78;100.00
53522;BME280;39398;48.382;9.802;2023-04-08T18:19:37;94291.91;;;6.02;100.00
53522;BME280;39398;48.382;9.802;2023-04-08T18:24:40;94311.69;;;5.96;100.00
53522;BME280;39398;48.382;9.802;2023-04-08T18:29:42;94313.88;;;6.09;100.00
53522;BME280;39398;48.382;9.802;2023-04-08T18:34:43;94319.19;;;6.17;100.00
53522;BME280;39398;48.382;9.802;2023-04-08T18:39:46;94325.47;;;5.98;100.00
53522;BME280;39398;48.382;9.802;2023-04-08T18:44:48;94333.03;;;6.01;100.00
53522;BME280;39398;48.382;9.802;2023-04-08T18:49:50;94338.78;;;6.05;100.00
53522;BME280;39398;48.382;9.802;2023-04-08T18:54:52;94337.66;;;6.08;100.00
53522;BME280;39398;48.382;9.802;2023-04-08T18:59:54;94343.56;;;6.10;100.00
53522;BME280;39398;48.382;9.802;2023-04-08T19:04:56;94347.31;;;6.07;100.00
53522;BME280;39398;48.382;9.802;2023-04-08T19:09:58;94350.63;;;5.73;100.00
53522;BME280;39398;48.382;9.802;2023-04-08T19:15:00;94366.19;;;5.21;100.00
53522;BME280;39398;48.382;9.802;2023-04-08T19:20:02;94360.81;;;5.41;100.00
53522;BME280;39398;48.382;9.802;2023-04-08T19:25:05;94365.16;;;5.50;100.00
53522;BME280;39398;48.382;9.802;2023-04-08T19:30:07;94369.34;;;5.25;100.00
53522;BME280;39398;48.382;9.802;2023-04-08T19:35:10;94362.16;;;5.45;100.00
53522;BME280;39398;48.382;9.802;2023-04-08T19:40:13;94367.22;;;5.10;100.00
53522;BME280;39398;48.382;9.802;2023-04-08T19:45:15;94371.97;;;4.97;100.00
53522;BME280;39398;48.382;9.802;2023-04-08T19:50:17;94376.38;;;5.24;100.00
53522;BME280;39398;48.382;9.802;2023-04-08T19:55:20;94373.16;;;5.66;100.00
53522;BME280;39398;48.382;9.802;2023-04-08T20:00:22;94369.78;;;5.74;100.00
53522;BME280;39398;48.382;9.802;2023-04-08T20:05:23;94369.03;;;5.81;100.00
53522;BME280;39398;48.382;9.802;2023-04-08T20:10:26;94368.66;;;5.76;100.00
53522;BME280;39398;48.382;9.802;2023-04-08T20:15:28;94379.09;;;5.05;100.00
53522;BME280;39398;48.382;9.802;2023-04-08T20:20:29;94386.13;;;4.77;100.00
53522;BME280;39398;48.382;9.802;2023-04-08T20:25:32;94380.75;;;4.78;100.00
53522;BME280;39398;48.382;9.802;2023-04-08T20:30:34;94381.78;;;4.95;100.00
53522;BME280;39398;48.382;9.802;2023-04-08T20:35:36;94385.22;;;5.13;100.00
53522;BME280;39398;48.382;9.802;2023-04-08T20:40:42;94387.31;;;4.92;100.00
53522;BME280;39398;48.382;9.802;2023-04-08T20:45:43;94380.81;;;5.59;100.00
53522;BME280;39398;48.382;9.802;2023-04-08T20:50:46;94382.59;;;5.95;100.00
53522;BME280;39398;48.382;9.802;2023-04-08T20:55:49;94382.44;;;5.96;100.00
53522;BME280;39398;48.382;9.802;2023-04-08T21:00:51;94375.25;;;5.98;100.00
53522;BME280;39398;48.382;9.802;2023-04-08T21:05:53;94374.13;;;5.47;100.00
53522;BME280;39398;48.382;9.802;2023-04-08T21:10:56;94374.00;;;5.03;100.00
53522;BME280;39398;48.382;9.802;2023-04-08T21:15:57;94380.28;;;4.93;100.00
53522;BME280;39398;48.382;9.802;2023-04-08T21:20:59;94382.59;;;4.96;100.00
53522;BME280;39398;48.382;9.802;2023-04-08T21:26:02;94385.84;;;4.80;100.00
53522;BME280;39398;48.382;9.802;2023-04-08T21:31:07;94385.41;;;4.84;100.00
53522;BME280;39398;48.382;9.802;2023-04-08T21:36:09;94384.50;;;4.76;100.00
53522;BME280;39398;48.382;9.802;2023-04-08T21:41:11;94389.00;;;4.83;100.00
53522;BME280;39398;48.382;9.802;2023-04-08T21:46:13;94394.66;;;4.79;100.00
53522;BME280;39398;48.382;9.802;2023-04-08T21:51:15;94386.81;;;4.79;100.00
53522;BME280;39398;48.382;9.802;2023-04-08T21:56:18;94387.13;;;4.76;100.00
53522;BME280;39398;48.382;9.802;2023-04-08T22:01:19;94389.16;;;4.72;100.00
53522;BME280;39398;48.382;9.802;2023-04-08T22:06:21;94387.53;;;4.71;100.00
53522;BME280;39398;48.382;9.802;2023-04-08T22:11:34;94382.59;;;4.96;100.00
53522;BME280;39398;48.382;9.802;2023-04-08T22:16:35;94386.31;;;4.93;100.00
53522;BME280;39398;48.382;9.802;2023-04-08T22:21:37;94375.09;;;4.83;100.00
53522;BME280;39398;48.382;9.802;2023-04-08T22:26:40;94369.69;;;4.84;100.00
53522;BME280;39398;48.382;9.802;2023-04-08T22:31:41;94368.44;;;4.61;100.00
53522;BME280;39398;48.382;9.802;2023-04-08T22:36:43;94367.88;;;4.67;100.00
53522;BME280;39398;48.382;9.802;2023-04-08T22:41:46;94367.97;;;4.48;100.00
53522;BME280;39398;48.382;9.802;2023-04-08T22:46:47;94370.03;;;4.72;100.00
53522;BME280;39398;48.382;9.802;2023-04-08T22:51:49;94362.28;;;4.52;100.00
53522;BME280;39398;48.382;9.802;2023-04-08T22:56:52;94363.66;;;4.47;100.00
53522;BME280;39398;48.382;9.802;2023-04-08T23:01:53;94364.59;;;4.28;100.00
53522;BME280;39398;48.382;9.802;2023-04-08T23:06:55;94365.50;;;4.36;100.00
53522;BME280;39398;48.382;9.802;2023-04-08T23:11:58;94363.47;;;4.30;100.00
53522;BME280;39398;48.382;9.802;2023-04-08T23:16:59;94362.75;;;4.38;100.00
53522;BME280;39398;48.382;9.802;2023-04-08T23:22:02;94363.47;;;4.95;100.00
53522;BME280;39398;48.382;9.802;2023-04-08T23:27:04;94361.44;;;4.89;100.00
53522;BME280;39398;48.382;9.802;2023-04-08T23:32:06;94358.94;;;4.87;100.00
53522;BME280;39398;48.382;9.802;2023-04-08T23:37:08;94360.41;;;5.00;100.00
53522;BME280;39398;48.382;9.802;2023-04-08T23:42:10;94364.06;;;4.89;100.00
53522;BME280;39398;48.382;9.802;2023-04-08T23:47:12;94364.69;;;5.19;100.00
53522;BME280;39398;48.382;9.802;2023-04-08T23:52:14;94367.94;;;5.30;100.00
53522;BME280;39398;48.382;9.802;2023-04-08T23:57:16;94355.72;;;5.39;100.00
